ALA313 UGTB-UWLL
Flight info
| Callsign | ALA313 |
|---|---|
| Flight time | N/A |
| Altitude | 38000 |
| Route | UGTB/13R LAPTO N82 NIRGA/K0824F390 R807 UROBO P135 DAFOS T789 NEPNI NEPNI1E |
| Aircraft | A20N/M-SDE3FGHIRWY/LB1 |
Departure
| Time | N/A |
|---|---|
| Airport | Tbilisi International Airport (UGTB) |
Arrival
| Time | 2026-04-30 18:54 |
|---|---|
| Airport | Ulyanovsk Baratayevka Airport (UWLL) |
| Time | Latitude | Longitude | Altitude | Speed | Heading |
|---|---|---|---|---|---|
| 2026-04-30 17:39 | 46.38337 | 44.28456 | 39158 ft | 462 kts | 355° |
| 2026-04-30 17:42 | 46.70450 | 44.29579 | 39161 ft | 462 kts | 355° |
| 2026-04-30 17:43 | 46.86506 | 44.30146 | 39162 ft | 463 kts | 355° |
| 2026-04-30 17:44 | 47.05727 | 44.30828 | 39161 ft | 463 kts | 355° |
| 2026-04-30 17:47 | 47.34667 | 44.31870 | 39162 ft | 463 kts | 355° |
| 2026-04-30 17:48 | 47.57133 | 44.32682 | 39156 ft | 464 kts | 356° |
| 2026-04-30 17:50 | 47.82858 | 44.33621 | 39153 ft | 463 kts | 356° |
| 2026-04-30 17:52 | 48.02031 | 44.38295 | 39145 ft | 474 kts | 13° |
| 2026-04-30 17:54 | 48.30174 | 44.52002 | 39137 ft | 474 kts | 14° |
| 2026-04-30 17:56 | 48.55162 | 44.64243 | 39141 ft | 475 kts | 14° |
| 2026-04-30 17:58 | 48.73908 | 44.73565 | 39137 ft | 474 kts | 15° |
| 2026-04-30 18:00 | 48.99413 | 44.85077 | 39128 ft | 484 kts | 12° |
| 2026-04-30 18:01 | 49.15689 | 44.91943 | 39119 ft | 489 kts | 12° |
| 2026-04-30 18:02 | 49.35337 | 45.00304 | 39120 ft | 491 kts | 13° |
| 2026-04-30 18:04 | 49.54984 | 45.08743 | 39113 ft | 490 kts | 13° |
| 2026-04-30 18:06 | 49.81167 | 45.20137 | 39106 ft | 491 kts | 13° |
| 2026-04-30 18:08 | 50.04130 | 45.30045 | 39099 ft | 489 kts | 10° |
| 2026-04-30 18:10 | 50.30659 | 45.39041 | 39089 ft | 489 kts | 9° |
| 2026-04-30 18:11 | 50.53835 | 45.47021 | 39074 ft | 489 kts | 9° |
| 2026-04-30 18:13 | 50.70417 | 45.52781 | 39062 ft | 489 kts | 10° |
| 2026-04-30 18:14 | 50.86977 | 45.58633 | 39056 ft | 490 kts | 10° |
| 2026-04-30 18:15 | 51.06612 | 45.67110 | 39044 ft | 493 kts | 21° |
| 2026-04-30 18:16 | 51.19028 | 45.76363 | 39048 ft | 493 kts | 24° |
| 2026-04-30 18:17 | 51.25205 | 45.81033 | 39056 ft | 493 kts | 24° |
| 2026-04-30 18:18 | 51.34499 | 45.88060 | 39055 ft | 493 kts | 24° |
| 2026-04-30 18:18 | 51.40672 | 45.92742 | 39057 ft | 493 kts | 24° |
| 2026-04-30 18:19 | 51.46823 | 45.97419 | 39059 ft | 493 kts | 24° |
| 2026-04-30 18:19 | 51.53017 | 46.02145 | 39065 ft | 493 kts | 24° |
| 2026-04-30 18:20 | 51.59128 | 46.06905 | 39064 ft | 492 kts | 25° |
| 2026-04-30 18:20 | 51.65197 | 46.11934 | 39067 ft | 492 kts | 26° |
| 2026-04-30 18:21 | 51.71244 | 46.16956 | 39069 ft | 492 kts | 26° |
| 2026-04-30 18:21 | 51.77317 | 46.21983 | 39068 ft | 491 kts | 26° |
| 2026-04-30 18:22 | 51.83387 | 46.27021 | 39064 ft | 491 kts | 26° |
| 2026-04-30 18:22 | 51.92429 | 46.34553 | 39045 ft | 491 kts | 26° |
| 2026-04-30 18:23 | 51.98473 | 46.39605 | 39041 ft | 490 kts | 26° |
| 2026-04-30 18:23 | 52.04516 | 46.44673 | 39039 ft | 490 kts | 26° |
| 2026-04-30 18:24 | 52.10565 | 46.49762 | 38750 ft | 493 kts | 26° |
| 2026-04-30 18:24 | 52.13611 | 46.52320 | 38282 ft | 491 kts | 26° |
| 2026-04-30 18:24 | 52.16640 | 46.54867 | 37821 ft | 490 kts | 26° |
| 2026-04-30 18:25 | 52.19661 | 46.57418 | 37319 ft | 488 kts | 26° |
| 2026-04-30 18:25 | 52.25643 | 46.62482 | 36074 ft | 490 kts | 26° |
| 2026-04-30 18:25 | 52.28660 | 46.65046 | 35420 ft | 491 kts | 27° |
| 2026-04-30 18:26 | 52.34797 | 46.70302 | 34098 ft | 493 kts | 28° |
| 2026-04-30 18:26 | 52.37823 | 46.72899 | 33419 ft | 495 kts | 28° |
| 2026-04-30 18:26 | 52.40873 | 46.75515 | 32789 ft | 498 kts | 28° |
| 2026-04-30 18:27 | 52.47016 | 46.80786 | 31588 ft | 503 kts | 28° |
| 2026-04-30 18:27 | 52.50065 | 46.83408 | 30996 ft | 505 kts | 28° |
| 2026-04-30 18:28 | 52.56275 | 46.88763 | 29472 ft | 509 kts | 27° |
| 2026-04-30 18:28 | 52.59433 | 46.91491 | 28671 ft | 511 kts | 28° |
| 2026-04-30 18:28 | 52.65690 | 46.96909 | 26810 ft | 515 kts | 27° |
| 2026-04-30 18:29 | 52.68844 | 46.99647 | 26107 ft | 517 kts | 27° |
| 2026-04-30 18:29 | 52.78442 | 47.07996 | 24287 ft | 526 kts | 27° |
| 2026-04-30 18:30 | 52.83843 | 47.12716 | 23327 ft | 526 kts | 27° |
| 2026-04-30 18:30 | 52.91227 | 47.19199 | 22001 ft | 506 kts | 28° |
| 2026-04-30 18:31 | 52.94292 | 47.21897 | 21468 ft | 495 kts | 28° |
| 2026-04-30 18:31 | 53.00216 | 47.27120 | 20497 ft | 474 kts | 28° |
| 2026-04-30 18:32 | 53.05856 | 47.32103 | 20053 ft | 444 kts | 28° |
| 2026-04-30 18:32 | 53.08542 | 47.34484 | 20049 ft | 426 kts | 28° |
| 2026-04-30 18:32 | 53.13576 | 47.38941 | 19786 ft | 399 kts | 28° |
| 2026-04-30 18:33 | 53.16026 | 47.41112 | 18976 ft | 405 kts | 28° |
| 2026-04-30 18:33 | 53.20990 | 47.45533 | 17855 ft | 402 kts | 28° |
| 2026-04-30 18:33 | 53.23432 | 47.47715 | 17382 ft | 398 kts | 28° |
| 2026-04-30 18:34 | 53.25864 | 47.49891 | 16898 ft | 394 kts | 28° |
| 2026-04-30 18:34 | 53.30617 | 47.54153 | 15911 ft | 388 kts | 28° |
| 2026-04-30 18:34 | 53.32989 | 47.56283 | 15381 ft | 386 kts | 28° |
| 2026-04-30 18:35 | 53.35329 | 47.58389 | 14936 ft | 381 kts | 28° |
| 2026-04-30 18:35 | 53.37633 | 47.60462 | 14527 ft | 376 kts | 28° |
| 2026-04-30 18:35 | 53.39919 | 47.62522 | 14141 ft | 371 kts | 28° |
| 2026-04-30 18:36 | 53.44371 | 47.66547 | 13366 ft | 362 kts | 29° |
| 2026-04-30 18:36 | 53.46582 | 47.68554 | 13082 ft | 353 kts | 28° |
| 2026-04-30 18:36 | 53.50995 | 47.71847 | 13058 ft | 348 kts | 21° |
| 2026-04-30 18:37 | 53.53220 | 47.73310 | 13063 ft | 348 kts | 21° |
| 2026-04-30 18:37 | 53.55472 | 47.74781 | 13058 ft | 348 kts | 21° |
| 2026-04-30 18:37 | 53.57720 | 47.76252 | 12742 ft | 348 kts | 21° |
| 2026-04-30 18:37 | 53.59983 | 47.77740 | 11977 ft | 356 kts | 21° |
| 2026-04-30 18:38 | 53.62294 | 47.79268 | 11426 ft | 355 kts | 21° |
| 2026-04-30 18:38 | 53.64579 | 47.80786 | 11065 ft | 349 kts | 21° |
| 2026-04-30 18:38 | 53.66793 | 47.82258 | 10725 ft | 343 kts | 21° |
| 2026-04-30 18:38 | 53.69009 | 47.83744 | 10355 ft | 338 kts | 23° |
| 2026-04-30 18:39 | 53.71081 | 47.85417 | 10004 ft | 332 kts | 29° |
| 2026-04-30 18:39 | 53.73065 | 47.87317 | 9543 ft | 322 kts | 31° |
| 2026-04-30 18:39 | 53.74952 | 47.89191 | 8964 ft | 312 kts | 31° |
| 2026-04-30 18:39 | 53.76766 | 47.91005 | 8569 ft | 295 kts | 31° |
| 2026-04-30 18:40 | 53.78500 | 47.92736 | 8271 ft | 284 kts | 31° |
| 2026-04-30 18:40 | 53.80176 | 47.94405 | 8081 ft | 273 kts | 31° |
| 2026-04-30 18:40 | 53.81748 | 47.95968 | 8067 ft | 253 kts | 31° |
| 2026-04-30 18:40 | 53.83212 | 47.97422 | 8062 ft | 237 kts | 31° |
| 2026-04-30 18:41 | 53.84583 | 47.98786 | 8067 ft | 228 kts | 31° |
| 2026-04-30 18:41 | 53.85960 | 48.00156 | 8073 ft | 229 kts | 31° |
| 2026-04-30 18:41 | 53.87338 | 48.01527 | 8077 ft | 229 kts | 31° |
| 2026-04-30 18:41 | 53.88705 | 48.02888 | 8073 ft | 229 kts | 31° |
| 2026-04-30 18:42 | 53.90067 | 48.04243 | 8072 ft | 229 kts | 31° |
| 2026-04-30 18:42 | 53.92814 | 48.06984 | 8078 ft | 229 kts | 31° |
| 2026-04-30 18:42 | 53.94198 | 48.08366 | 8077 ft | 227 kts | 31° |
| 2026-04-30 18:45 | 54.05321 | 48.01826 | 4804 ft | 207 kts | 302° |
| 2026-04-30 18:45 | 54.06181 | 47.99915 | 4318 ft | 204 kts | 316° |
| 2026-04-30 18:45 | 54.07080 | 47.98081 | 3850 ft | 201 kts | 296° |
| 2026-04-30 18:46 | 54.07397 | 47.95806 | 3449 ft | 196 kts | 282° |
| 2026-04-30 18:46 | 54.07937 | 47.93794 | 3010 ft | 188 kts | 319° |
| 2026-04-30 18:46 | 54.09066 | 47.92928 | 2611 ft | 179 kts | 357° |
| 2026-04-30 18:46 | 54.10248 | 47.93390 | 2284 ft | 174 kts | 32° |
| 2026-04-30 18:47 | 54.11057 | 47.94912 | 2170 ft | 176 kts | 64° |
| 2026-04-30 18:47 | 54.11256 | 47.96963 | 2135 ft | 179 kts | 88° |
| 2026-04-30 18:47 | 54.11259 | 47.99080 | 2118 ft | 180 kts | 88° |
| 2026-04-30 18:47 | 54.11261 | 48.01193 | 2107 ft | 175 kts | 88° |
| 2026-04-30 18:48 | 54.11266 | 48.03175 | 2077 ft | 157 kts | 88° |
| 2026-04-30 18:48 | 54.11335 | 48.04944 | 2068 ft | 148 kts | 67° |
| 2026-04-30 18:48 | 54.11948 | 48.06314 | 2102 ft | 146 kts | 39° |
| 2026-04-30 18:48 | 54.12775 | 48.07334 | 2108 ft | 147 kts | 31° |
| 2026-04-30 18:49 | 54.13650 | 48.08238 | 2112 ft | 147 kts | 31° |
| 2026-04-30 18:49 | 54.14530 | 48.09138 | 2112 ft | 147 kts | 31° |
| 2026-04-30 18:49 | 54.15402 | 48.10049 | 2110 ft | 147 kts | 31° |
| 2026-04-30 18:49 | 54.16266 | 48.10968 | 2137 ft | 147 kts | 32° |
| 2026-04-30 18:50 | 54.17106 | 48.11872 | 2117 ft | 139 kts | 32° |
| 2026-04-30 18:50 | 54.17910 | 48.12742 | 2104 ft | 135 kts | 32° |
| 2026-04-30 18:50 | 54.18702 | 48.13599 | 2106 ft | 135 kts | 32° |
| 2026-04-30 18:50 | 54.19499 | 48.14461 | 1962 ft | 135 kts | 32° |
| 2026-04-30 18:51 | 54.20287 | 48.15311 | 1792 ft | 134 kts | 32° |
| 2026-04-30 18:51 | 54.21077 | 48.16165 | 1616 ft | 134 kts | 32° |
| 2026-04-30 18:51 | 54.21858 | 48.17006 | 1442 ft | 134 kts | 31° |
| 2026-04-30 18:51 | 54.22649 | 48.17860 | 1265 ft | 134 kts | 31° |
| 2026-04-30 18:52 | 54.23432 | 48.18703 | 1080 ft | 134 kts | 31° |
| 2026-04-30 18:52 | 54.24211 | 48.19541 | 902 ft | 134 kts | 31° |
| 2026-04-30 18:52 | 54.24999 | 48.20385 | 718 ft | 133 kts | 31° |
| 2026-04-30 18:52 | 54.25789 | 48.21233 | 540 ft | 134 kts | 31° |
| 2026-04-30 18:53 | 54.26530 | 48.22029 | 467 ft | 100 kts | 31° |
| 2026-04-30 18:53 | 54.26944 | 48.22479 | 467 ft | 65 kts | 31° |
| 2026-04-30 18:53 | 54.27364 | 48.22929 | 467 ft | 74 kts | 32° |
| 2026-04-30 18:53 | 54.27747 | 48.23346 | 467 ft | 58 kts | 32° |
| 2026-04-30 18:54 | 54.28057 | 48.23679 | 467 ft | 40 kts | 32° |
| 2026-04-30 18:54 | 54.28254 | 48.23881 | 467 ft | 17 kts | 14° |
| 2026-04-30 18:54 | 54.28333 | 48.23770 | 467 ft | 10 kts | 301° |
| 2026-04-30 18:54 | 54.28347 | 48.23730 | 467 ft | 0 kts | 301° |
| 2026-04-30 18:55 | 54.28405 | 48.23572 | 467 ft | 18 kts | 302° |
| 2026-04-30 18:55 | 54.28474 | 48.23383 | 467 ft | 18 kts | 301° |
| 2026-04-30 18:56 | 54.28577 | 48.23101 | 467 ft | 7 kts | 301° |
| 2026-04-30 18:56 | 54.28613 | 48.23030 | 467 ft | 8 kts | 349° |
| 2026-04-30 18:56 | 54.28666 | 48.23067 | 467 ft | 7 kts | 41° |
| 2026-04-30 18:57 | 54.28639 | 48.23206 | 467 ft | 0 kts | 122° |